createdAt,value
2022-11-03T00:05:24.659Z,30.80
2022-11-03T00:10:32.216Z,33.70
2022-11-03T00:15:39.621Z,34.90
2022-11-03T00:20:47.134Z,29.60
2022-11-03T00:25:54.872Z,29.10
2022-11-03T00:31:03.626Z,32.50
2022-11-03T00:36:13.618Z,33.60
2022-11-03T00:41:22.790Z,32.20
2022-11-03T00:46:30.736Z,28.40
2022-11-03T00:51:37.818Z,32.40
2022-11-03T01:01:51.966Z,32.60
2022-11-03T01:07:01.351Z,30.10
2022-11-03T01:12:11.720Z,30.50
2022-11-03T01:17:22.129Z,35.00
2022-11-03T01:22:29.472Z,32.10
2022-11-03T01:27:37.848Z,29.80
2022-11-03T01:32:45.035Z,32.30
2022-11-03T01:37:52.794Z,32.40
2022-11-03T01:43:20.685Z,34.50
2022-11-03T01:48:29.433Z,29.90
2022-11-03T01:53:39.118Z,36.50
2022-11-03T01:58:51.761Z,29.90
2022-11-03T02:04:13.011Z,31.90
2022-11-03T02:09:21.347Z,33.80
2022-11-03T02:14:29.161Z,30.70
2022-11-03T02:19:40.401Z,40.10
2022-11-03T02:24:54.187Z,41.20
2022-11-03T02:30:01.719Z,47.80
2022-11-03T02:35:21.890Z,39.40
2022-11-03T02:40:34.294Z,39.50
2022-11-03T02:45:43.271Z,40.50
2022-11-03T02:50:51.269Z,38.80
2022-11-03T02:56:03.744Z,42.10
2022-11-03T03:01:16.316Z,38.30
2022-11-03T03:06:30.067Z,38.20
2022-11-03T03:11:40.853Z,39.50
2022-11-03T03:16:55.536Z,47.20
2022-11-03T03:22:26.312Z,42.20
2022-11-03T03:27:35.936Z,43.70
2022-11-03T03:32:48.742Z,45.20
2022-11-03T03:38:00.881Z,48.80
2022-11-03T03:43:11.522Z,51.80
2022-11-03T03:48:19.016Z,34.90
2022-11-03T03:53:30.941Z,39.20
2022-11-03T03:58:37.988Z,30.70
2022-11-03T04:03:45.118Z,37.60
2022-11-03T04:14:16.345Z,40.90
2022-11-03T04:19:41.817Z,43.60
2022-11-03T04:24:51.047Z,46.00
2022-11-03T04:30:01.456Z,45.20
2022-11-03T04:35:18.761Z,34.20
2022-11-03T04:40:26.243Z,37.90
2022-11-03T04:45:34.989Z,53.10
2022-11-03T04:50:46.791Z,40.00
2022-11-03T04:55:55.647Z,47.30
2022-11-03T05:01:05.175Z,44.50
2022-11-03T05:06:19.640Z,38.20
2022-11-03T05:11:33.570Z,41.50
2022-11-03T05:16:41.130Z,42.70
2022-11-03T05:21:51.412Z,48.80
2022-11-03T05:27:01.357Z,53.50
2022-11-03T05:32:15.830Z,47.60
2022-11-03T05:37:28.526Z,46.00
2022-11-03T05:42:41.802Z,49.30
2022-11-03T05:47:49.694Z,44.10
2022-11-03T05:53:00.607Z,46.60
2022-11-03T05:58:23.301Z,50.30
2022-11-03T06:03:33.182Z,68.90
2022-11-03T06:08:43.215Z,49.40
2022-11-03T06:13:53.874Z,59.20
2022-11-03T06:19:02.994Z,47.30
2022-11-03T06:24:15.272Z,47.90
2022-11-03T06:29:23.998Z,50.20
2022-11-03T06:34:43.130Z,43.90
2022-11-03T06:39:51.276Z,43.10
2022-11-03T06:44:59.106Z,29.40
2022-11-03T06:50:24.028Z,43.00
2022-11-03T06:55:32.582Z,38.70
2022-11-03T07:00:45.871Z,30.60
2022-11-03T07:06:02.923Z,27.50
2022-11-03T07:11:17.302Z,43.90
2022-11-03T07:16:29.986Z,44.40
2022-11-03T07:21:42.494Z,32.70
2022-11-03T07:26:51.505Z,40.20
2022-11-03T07:32:00.934Z,41.00
2022-11-03T07:42:23.041Z,44.80
2022-11-03T07:47:31.073Z,38.40
2022-11-03T07:52:39.289Z,44.40
2022-11-03T07:57:48.192Z,42.90
2022-11-03T08:03:00.685Z,40.20
2022-11-03T08:08:08.225Z,49.80
2022-11-03T08:13:15.836Z,47.70
2022-11-03T08:18:23.258Z,41.20
2022-11-03T08:27:36.744Z,40.10
2022-11-03T08:32:43.895Z,38.40
2022-11-03T08:42:57.141Z,41.90
2022-11-03T08:48:04.470Z,42.30
2022-11-03T08:53:12.013Z,39.90
2022-11-03T08:58:19.436Z,38.50
2022-11-03T09:03:27.377Z,26.10
2022-11-03T09:14:01.887Z,29.00
2022-11-03T09:19:09.363Z,25.80
2022-11-03T09:24:17.630Z,23.90
2022-11-03T09:29:32.871Z,26.40
2022-11-03T09:34:47.793Z,17.20
2022-11-03T09:39:55.264Z,18.70
2022-11-03T09:45:03.159Z,18.10
2022-11-03T09:50:15.940Z,13.30
2022-11-03T09:55:25.957Z,18.70
2022-11-03T10:00:33.521Z,13.80
2022-11-03T10:05:43.682Z,11.80
2022-11-03T10:10:51.306Z,17.30
2022-11-03T10:15:58.944Z,16.60
2022-11-03T10:21:08.123Z,10.50
2022-11-03T10:26:19.565Z,12.40
2022-11-03T10:31:35.616Z,14.90
2022-11-03T10:36:48.057Z,8.70
2022-11-03T10:42:02.048Z,9.80
2022-11-03T10:47:23.488Z,10.40
2022-11-03T10:52:31.579Z,11.00
2022-11-03T10:57:38.818Z,13.20
2022-11-03T11:02:47.847Z,6.80
2022-11-03T11:07:57.057Z,8.00
2022-11-03T11:13:27.746Z,8.50
2022-11-03T11:19:12.244Z,7.00
2022-11-03T11:25:00.187Z,8.90
2022-11-03T11:30:30.186Z,8.30
2022-11-03T11:36:21.782Z,7.50
2022-11-03T11:42:05.231Z,8.80
2022-11-03T11:47:36.182Z,7.60
2022-11-03T11:52:46.489Z,6.20
2022-11-03T11:57:55.195Z,5.90
2022-11-03T12:03:07.812Z,7.60
2022-11-03T12:08:28.821Z,8.10
2022-11-03T12:13:47.140Z,6.30
2022-11-03T12:18:55.604Z,6.60
2022-11-03T12:24:02.900Z,8.30
2022-11-03T12:29:10.610Z,10.60
2022-11-03T12:34:19.147Z,7.40
2022-11-03T12:39:27.367Z,8.50
2022-11-03T12:44:36.776Z,8.70
2022-11-03T12:49:46.454Z,6.90
2022-11-03T12:54:54.503Z,8.20
2022-11-03T13:00:01.896Z,6.50
2022-11-03T13:05:15.923Z,9.90
2022-11-03T13:10:23.800Z,6.10
2022-11-03T13:15:31.048Z,6.90
2022-11-03T13:20:38.743Z,8.20
2022-11-03T13:25:46.774Z,5.10
2022-11-03T13:30:54.230Z,9.90
2022-11-03T13:36:02.101Z,7.70
2022-11-03T13:41:09.874Z,8.40
2022-11-03T13:46:17.241Z,9.00
2022-11-03T13:51:25.121Z,10.10
2022-11-03T14:07:29.370Z,9.50
2022-11-03T14:12:37.328Z,7.40
2022-11-03T14:17:44.617Z,10.30
2022-11-03T14:22:52.043Z,6.50
2022-11-03T14:27:59.499Z,10.20
2022-11-03T14:33:07.099Z,12.70
2022-11-03T14:38:15.286Z,11.50
2022-11-03T14:43:23.149Z,15.00
2022-11-03T14:48:30.534Z,14.10
2022-11-03T14:53:38.062Z,10.10
2022-11-03T14:58:45.780Z,8.30
2022-11-03T15:03:53.713Z,11.20
2022-11-03T15:09:00.948Z,10.20
2022-11-03T15:14:08.917Z,9.30
2022-11-03T15:19:16.313Z,10.50
2022-11-03T15:29:54.109Z,11.80
2022-11-03T15:35:01.884Z,14.20
2022-11-03T15:40:12.640Z,10.30
2022-11-03T15:45:21.826Z,10.50
2022-11-03T15:50:29.306Z,14.10
2022-11-03T15:55:37.439Z,10.60
2022-11-03T16:00:45.153Z,10.70
2022-11-03T16:05:54.616Z,11.50
2022-11-03T16:11:02.821Z,12.90
2022-11-03T16:16:11.487Z,14.80
2022-11-03T16:21:19.292Z,18.40
2022-11-03T16:26:27.585Z,11.70
2022-11-03T16:31:36.233Z,20.10
2022-11-03T16:36:44.664Z,14.70
2022-11-03T16:41:55.255Z,11.60
2022-11-03T16:47:02.797Z,18.00
2022-11-03T16:52:11.180Z,20.30
2022-11-03T16:57:19.251Z,20.10
2022-11-03T17:02:28.298Z,16.40
2022-11-03T17:07:35.889Z,22.20
2022-11-03T17:12:43.360Z,19.30
2022-11-03T17:17:54.176Z,19.40
2022-11-03T17:23:01.883Z,21.30
2022-11-03T17:32:54.529Z,27.00
2022-11-03T17:38:07.139Z,26.10
2022-11-03T17:43:22.666Z,27.20
2022-11-03T17:48:30.180Z,23.60
2022-11-03T17:53:37.639Z,21.50
2022-11-03T17:58:47.308Z,23.70
2022-11-03T18:03:55.562Z,23.00
2022-11-03T18:09:02.927Z,25.20
2022-11-03T18:14:10.818Z,23.00
2022-11-03T18:19:19.562Z,21.00
2022-11-03T18:24:28.602Z,23.60
2022-11-03T18:29:36.360Z,22.00
2022-11-03T18:34:43.780Z,22.00
2022-11-03T18:39:51.904Z,23.00
2022-11-03T18:45:02.667Z,25.70
2022-11-03T18:50:16.877Z,27.50
2022-11-03T18:55:25.073Z,18.90
2022-11-03T19:00:33.924Z,21.40
2022-11-03T19:05:44.406Z,23.00
2022-11-03T19:10:53.839Z,26.30
2022-11-03T19:16:03.539Z,23.00
2022-11-03T19:21:16.630Z,25.30
2022-11-03T19:26:27.340Z,27.40
2022-11-03T19:31:39.340Z,30.00
2022-11-03T19:36:47.795Z,29.70
2022-11-03T19:42:13.105Z,30.20
2022-11-03T19:47:23.231Z,31.30
2022-11-03T19:52:34.056Z,30.00
2022-11-03T19:57:41.594Z,32.80
2022-11-03T20:02:49.872Z,34.60
2022-11-03T20:08:01.279Z,32.60
2022-11-03T20:13:10.488Z,30.80
2022-11-03T20:18:18.800Z,25.60
2022-11-03T20:23:30.114Z,29.40
2022-11-03T20:28:39.916Z,34.20
2022-11-03T20:33:48.410Z,36.10
2022-11-03T20:38:59.756Z,31.70
2022-11-03T20:44:08.131Z,33.60
2022-11-03T20:49:16.072Z,35.00
2022-11-03T20:54:24.286Z,37.30
2022-11-03T20:59:34.614Z,34.50
2022-11-03T21:04:45.746Z,31.60
2022-11-03T21:09:53.764Z,32.50
2022-11-03T21:15:18.778Z,33.10
2022-11-03T21:20:26.710Z,29.90
2022-11-03T21:25:34.106Z,36.90
2022-11-03T21:30:41.542Z,33.00
2022-11-03T21:35:50.543Z,32.70
2022-11-03T21:41:18.192Z,32.80
2022-11-03T21:51:31.933Z,31.80
2022-11-03T21:56:39.525Z,33.60
2022-11-03T22:01:49.538Z,31.70
2022-11-03T22:06:59.670Z,32.20
2022-11-03T22:12:10.851Z,32.70
2022-11-03T22:17:18.458Z,33.80
2022-11-03T22:22:44.590Z,34.40
2022-11-03T22:27:52.581Z,36.80
2022-11-03T22:33:00.658Z,37.90
2022-11-03T22:38:10.494Z,30.90
2022-11-03T22:43:36.239Z,28.50
2022-11-03T22:48:44.063Z,32.80
2022-11-03T22:54:09.214Z,37.20
2022-11-03T22:59:18.622Z,30.50
2022-11-03T23:04:27.403Z,36.60
2022-11-03T23:09:37.440Z,33.00
2022-11-03T23:15:04.640Z,32.10
2022-11-03T23:20:42.157Z,29.90
2022-11-03T23:25:49.827Z,31.90
2022-11-03T23:30:57.260Z,31.70
2022-11-03T23:36:08.284Z,28.30
2022-11-03T23:41:17.079Z,32.40
2022-11-03T23:46:43.932Z,30.70
2022-11-03T23:51:52.066Z,27.90
2022-11-03T23:57:17.080Z,26.40
